sensor_id;sensor_type;location;lat;lon;timestamp;P1;durP1;ratioP1;P2;durP2;ratioP2
26034;SDS011;13809;48.632;11.576;2022-12-18T00:02:18;29.53;;;17.13;;
26034;SDS011;13809;48.632;11.576;2022-12-18T00:07:21;26.07;;;16.03;;
26034;SDS011;13809;48.632;11.576;2022-12-18T00:12:24;24.87;;;15.80;;
26034;SDS011;13809;48.632;11.576;2022-12-18T00:17:31;30.30;;;17.57;;
26034;SDS011;13809;48.632;11.576;2022-12-18T00:22:35;28.27;;;17.90;;
26034;SDS011;13809;48.632;11.576;2022-12-18T00:27:38;26.57;;;16.03;;
26034;SDS011;13809;48.632;11.576;2022-12-18T00:32:42;24.33;;;15.63;;
26034;SDS011;13809;48.632;11.576;2022-12-18T00:37:45;25.07;;;16.20;;
26034;SDS011;13809;48.632;11.576;2022-12-18T00:42:48;30.83;;;17.43;;
26034;SDS011;13809;48.632;11.576;2022-12-18T00:47:59;29.73;;;16.83;;
26034;SDS011;13809;48.632;11.576;2022-12-18T00:53:02;27.87;;;15.83;;
26034;SDS011;13809;48.632;11.576;2022-12-18T00:58:05;26.70;;;15.77;;
26034;SDS011;13809;48.632;11.576;2022-12-18T01:03:10;27.07;;;16.77;;
26034;SDS011;13809;48.632;11.576;2022-12-18T01:08:16;28.93;;;17.10;;
26034;SDS011;13809;48.632;11.576;2022-12-18T01:13:19;26.27;;;16.30;;
26034;SDS011;13809;48.632;11.576;2022-12-18T01:18:23;26.63;;;16.27;;
26034;SDS011;13809;48.632;11.576;2022-12-18T01:23:26;23.43;;;15.03;;
26034;SDS011;13809;48.632;11.576;2022-12-18T01:28:30;25.93;;;15.47;;
26034;SDS011;13809;48.632;11.576;2022-12-18T01:33:34;26.40;;;15.37;;
26034;SDS011;13809;48.632;11.576;2022-12-18T01:38:38;20.57;;;13.13;;
26034;SDS011;13809;48.632;11.576;2022-12-18T01:43:45;26.13;;;14.03;;
26034;SDS011;13809;48.632;11.576;2022-12-18T01:48:53;21.67;;;12.83;;
26034;SDS011;13809;48.632;11.576;2022-12-18T01:53:59;20.07;;;12.13;;
26034;SDS011;13809;48.632;11.576;2022-12-18T01:59:03;22.13;;;12.90;;
26034;SDS011;13809;48.632;11.576;2022-12-18T02:04:20;18.43;;;12.03;;
26034;SDS011;13809;48.632;11.576;2022-12-18T02:09:25;20.63;;;12.03;;
26034;SDS011;13809;48.632;11.576;2022-12-18T02:14:37;21.23;;;12.53;;
26034;SDS011;13809;48.632;11.576;2022-12-18T02:19:50;21.17;;;12.93;;
26034;SDS011;13809;48.632;11.576;2022-12-18T02:25:07;21.40;;;11.90;;
26034;SDS011;13809;48.632;11.576;2022-12-18T02:30:22;21.77;;;12.17;;
26034;SDS011;13809;48.632;11.576;2022-12-18T02:35:26;23.23;;;13.70;;
26034;SDS011;13809;48.632;11.576;2022-12-18T02:40:32;23.13;;;13.73;;
26034;SDS011;13809;48.632;11.576;2022-12-18T02:45:45;20.87;;;12.33;;
26034;SDS011;13809;48.632;11.576;2022-12-18T02:50:51;20.07;;;12.27;;
26034;SDS011;13809;48.632;11.576;2022-12-18T02:56:02;17.70;;;12.13;;
26034;SDS011;13809;48.632;11.576;2022-12-18T03:01:11;21.13;;;13.10;;
26034;SDS011;13809;48.632;11.576;2022-12-18T03:06:20;23.83;;;13.87;;
26034;SDS011;13809;48.632;11.576;2022-12-18T03:11:28;24.03;;;14.43;;
26034;SDS011;13809;48.632;11.576;2022-12-18T03:16:55;24.03;;;14.00;;
26034;SDS011;13809;48.632;11.576;2022-12-18T03:22:05;22.13;;;13.27;;
26034;SDS011;13809;48.632;11.576;2022-12-18T03:27:10;19.60;;;12.63;;
26034;SDS011;13809;48.632;11.576;2022-12-18T03:32:19;22.17;;;14.20;;
26034;SDS011;13809;48.632;11.576;2022-12-18T03:37:27;22.90;;;13.70;;
26034;SDS011;13809;48.632;11.576;2022-12-18T03:42:32;24.90;;;14.60;;
26034;SDS011;13809;48.632;11.576;2022-12-18T03:47:44;22.67;;;14.10;;
26034;SDS011;13809;48.632;11.576;2022-12-18T03:52:57;18.03;;;12.23;;
26034;SDS011;13809;48.632;11.576;2022-12-18T03:58:04;17.63;;;11.77;;
26034;SDS011;13809;48.632;11.576;2022-12-18T04:03:11;19.80;;;12.07;;
26034;SDS011;13809;48.632;11.576;2022-12-18T04:08:16;21.40;;;12.90;;
26034;SDS011;13809;48.632;11.576;2022-12-18T04:13:23;18.43;;;12.10;;
26034;SDS011;13809;48.632;11.576;2022-12-18T04:18:28;20.33;;;12.70;;
26034;SDS011;13809;48.632;11.576;2022-12-18T04:23:31;21.73;;;12.87;;
26034;SDS011;13809;48.632;11.576;2022-12-18T04:28:34;21.03;;;13.43;;
26034;SDS011;13809;48.632;11.576;2022-12-18T04:33:39;21.83;;;13.60;;
26034;SDS011;13809;48.632;11.576;2022-12-18T04:38:43;20.97;;;13.87;;
26034;SDS011;13809;48.632;11.576;2022-12-18T04:43:46;20.23;;;14.40;;
26034;SDS011;13809;48.632;11.576;2022-12-18T04:48:50;21.03;;;13.83;;
26034;SDS011;13809;48.632;11.576;2022-12-18T04:53:53;22.13;;;13.10;;
26034;SDS011;13809;48.632;11.576;2022-12-18T04:58:57;19.40;;;12.40;;
26034;SDS011;13809;48.632;11.576;2022-12-18T05:04:01;19.20;;;12.73;;
26034;SDS011;13809;48.632;11.576;2022-12-18T05:09:05;21.27;;;13.77;;
26034;SDS011;13809;48.632;11.576;2022-12-18T05:14:08;22.93;;;14.37;;
26034;SDS011;13809;48.632;11.576;2022-12-18T05:19:12;19.60;;;13.30;;
26034;SDS011;13809;48.632;11.576;2022-12-18T05:24:15;19.07;;;11.93;;
26034;SDS011;13809;48.632;11.576;2022-12-18T05:29:18;20.37;;;12.63;;
26034;SDS011;13809;48.632;11.576;2022-12-18T05:34:23;21.13;;;11.93;;
26034;SDS011;13809;48.632;11.576;2022-12-18T05:39:26;20.00;;;12.77;;
26034;SDS011;13809;48.632;11.576;2022-12-18T05:44:29;20.20;;;11.93;;
26034;SDS011;13809;48.632;11.576;2022-12-18T05:49:34;17.23;;;11.93;;
26034;SDS011;13809;48.632;11.576;2022-12-18T05:54:37;20.47;;;12.40;;
26034;SDS011;13809;48.632;11.576;2022-12-18T05:59:40;18.57;;;11.93;;
26034;SDS011;13809;48.632;11.576;2022-12-18T06:04:44;20.83;;;12.73;;
26034;SDS011;13809;48.632;11.576;2022-12-18T06:09:48;18.33;;;12.10;;
26034;SDS011;13809;48.632;11.576;2022-12-18T06:14:51;18.00;;;11.97;;
26034;SDS011;13809;48.632;11.576;2022-12-18T06:19:55;19.73;;;12.77;;
26034;SDS011;13809;48.632;11.576;2022-12-18T06:24:58;21.10;;;12.27;;
26034;SDS011;13809;48.632;11.576;2022-12-18T06:30:02;19.33;;;12.30;;
26034;SDS011;13809;48.632;11.576;2022-12-18T06:35:08;19.47;;;11.77;;
26034;SDS011;13809;48.632;11.576;2022-12-18T06:40:11;17.90;;;12.53;;
26034;SDS011;13809;48.632;11.576;2022-12-18T06:45:14;18.47;;;12.83;;
26034;SDS011;13809;48.632;11.576;2022-12-18T06:50:19;16.63;;;11.93;;
26034;SDS011;13809;48.632;11.576;2022-12-18T06:55:22;20.90;;;12.57;;
26034;SDS011;13809;48.632;11.576;2022-12-18T07:00:25;19.30;;;12.17;;
26034;SDS011;13809;48.632;11.576;2022-12-18T07:05:30;19.73;;;12.30;;
26034;SDS011;13809;48.632;11.576;2022-12-18T07:10:33;17.73;;;12.50;;
26034;SDS011;13809;48.632;11.576;2022-12-18T07:15:48;15.73;;;10.80;;
26034;SDS011;13809;48.632;11.576;2022-12-18T07:20:53;17.27;;;11.93;;
26034;SDS011;13809;48.632;11.576;2022-12-18T07:25:59;17.50;;;11.63;;
26034;SDS011;13809;48.632;11.576;2022-12-18T07:31:03;19.63;;;12.67;;
26034;SDS011;13809;48.632;11.576;2022-12-18T07:36:10;17.67;;;12.17;;
26034;SDS011;13809;48.632;11.576;2022-12-18T07:41:13;17.73;;;11.20;;
26034;SDS011;13809;48.632;11.576;2022-12-18T07:46:17;18.67;;;12.13;;
26034;SDS011;13809;48.632;11.576;2022-12-18T07:51:21;19.47;;;13.73;;
26034;SDS011;13809;48.632;11.576;2022-12-18T07:56:25;19.93;;;12.90;;
26034;SDS011;13809;48.632;11.576;2022-12-18T08:01:30;17.93;;;13.03;;
26034;SDS011;13809;48.632;11.576;2022-12-18T08:06:34;17.70;;;12.00;;
26034;SDS011;13809;48.632;11.576;2022-12-18T08:11:37;18.87;;;12.37;;
26034;SDS011;13809;48.632;11.576;2022-12-18T08:16:41;22.00;;;15.67;;
26034;SDS011;13809;48.632;11.576;2022-12-18T08:21:45;20.37;;;14.33;;
26034;SDS011;13809;48.632;11.576;2022-12-18T08:26:48;19.80;;;13.73;;
26034;SDS011;13809;48.632;11.576;2022-12-18T08:32:11;20.67;;;14.43;;
26034;SDS011;13809;48.632;11.576;2022-12-18T08:37:16;20.87;;;13.47;;
26034;SDS011;13809;48.632;11.576;2022-12-18T08:42:19;17.57;;;11.80;;
26034;SDS011;13809;48.632;11.576;2022-12-18T08:47:39;17.00;;;12.83;;
26034;SDS011;13809;48.632;11.576;2022-12-18T08:52:44;20.93;;;14.83;;
26034;SDS011;13809;48.632;11.576;2022-12-18T08:57:48;19.70;;;13.30;;
26034;SDS011;13809;48.632;11.576;2022-12-18T09:02:51;16.97;;;11.93;;
26034;SDS011;13809;48.632;11.576;2022-12-18T09:07:56;19.03;;;13.00;;
26034;SDS011;13809;48.632;11.576;2022-12-18T09:12:59;17.37;;;12.27;;
26034;SDS011;13809;48.632;11.576;2022-12-18T09:18:02;17.67;;;12.10;;
26034;SDS011;13809;48.632;11.576;2022-12-18T09:23:07;16.97;;;12.27;;
26034;SDS011;13809;48.632;11.576;2022-12-18T09:28:11;17.93;;;11.93;;
26034;SDS011;13809;48.632;11.576;2022-12-18T09:33:17;18.90;;;12.30;;
26034;SDS011;13809;48.632;11.576;2022-12-18T09:38:22;18.20;;;11.80;;
26034;SDS011;13809;48.632;11.576;2022-12-18T09:43:26;16.77;;;12.17;;
26034;SDS011;13809;48.632;11.576;2022-12-18T09:48:33;15.07;;;11.23;;
26034;SDS011;13809;48.632;11.576;2022-12-18T09:53:40;18.97;;;11.80;;
26034;SDS011;13809;48.632;11.576;2022-12-18T09:58:48;15.90;;;11.50;;
26034;SDS011;13809;48.632;11.576;2022-12-18T10:03:56;16.97;;;12.03;;
26034;SDS011;13809;48.632;11.576;2022-12-18T10:09:01;18.57;;;13.37;;
26034;SDS011;13809;48.632;11.576;2022-12-18T10:14:10;18.23;;;12.33;;
26034;SDS011;13809;48.632;11.576;2022-12-18T10:19:29;19.40;;;13.70;;
26034;SDS011;13809;48.632;11.576;2022-12-18T10:24:42;17.90;;;12.77;;
26034;SDS011;13809;48.632;11.576;2022-12-18T10:29:51;19.60;;;13.27;;
26034;SDS011;13809;48.632;11.576;2022-12-18T10:34:56;15.87;;;11.70;;
26034;SDS011;13809;48.632;11.576;2022-12-18T10:40:07;17.90;;;12.53;;
26034;SDS011;13809;48.632;11.576;2022-12-18T10:45:20;17.40;;;13.63;;
26034;SDS011;13809;48.632;11.576;2022-12-18T10:50:24;20.63;;;13.27;;
26034;SDS011;13809;48.632;11.576;2022-12-18T10:55:53;19.27;;;13.20;;
26034;SDS011;13809;48.632;11.576;2022-12-18T11:01:05;17.93;;;13.37;;
26034;SDS011;13809;48.632;11.576;2022-12-18T11:06:11;19.23;;;13.57;;
26034;SDS011;13809;48.632;11.576;2022-12-18T11:11:19;19.47;;;14.00;;
26034;SDS011;13809;48.632;11.576;2022-12-18T11:16:23;17.33;;;12.97;;
26034;SDS011;13809;48.632;11.576;2022-12-18T11:21:27;18.30;;;13.20;;
26034;SDS011;13809;48.632;11.576;2022-12-18T11:26:34;17.10;;;13.17;;
26034;SDS011;13809;48.632;11.576;2022-12-18T11:31:38;19.83;;;13.80;;
26034;SDS011;13809;48.632;11.576;2022-12-18T11:36:42;18.07;;;13.30;;
26034;SDS011;13809;48.632;11.576;2022-12-18T11:41:48;16.47;;;13.30;;
26034;SDS011;13809;48.632;11.576;2022-12-18T11:47:19;15.83;;;12.53;;
26034;SDS011;13809;48.632;11.576;2022-12-18T11:52:28;15.47;;;12.07;;
26034;SDS011;13809;48.632;11.576;2022-12-18T11:57:39;16.10;;;12.43;;
26034;SDS011;13809;48.632;11.576;2022-12-18T12:03:03;17.93;;;14.00;;
26034;SDS011;13809;48.632;11.576;2022-12-18T12:08:26;17.17;;;13.27;;
26034;SDS011;13809;48.632;11.576;2022-12-18T12:13:41;19.03;;;14.50;;
26034;SDS011;13809;48.632;11.576;2022-12-18T12:19:00;17.20;;;12.97;;
26034;SDS011;13809;48.632;11.576;2022-12-18T12:24:27;18.20;;;13.40;;
26034;SDS011;13809;48.632;11.576;2022-12-18T12:29:45;16.83;;;12.83;;
26034;SDS011;13809;48.632;11.576;2022-12-18T12:34:56;17.50;;;13.53;;
26034;SDS011;13809;48.632;11.576;2022-12-18T12:40:11;20.23;;;14.73;;
26034;SDS011;13809;48.632;11.576;2022-12-18T12:45:42;19.40;;;14.17;;
26034;SDS011;13809;48.632;11.576;2022-12-18T12:50:50;20.13;;;13.97;;
26034;SDS011;13809;48.632;11.576;2022-12-18T12:55:55;17.90;;;13.77;;
26034;SDS011;13809;48.632;11.576;2022-12-18T13:01:04;19.73;;;13.67;;
26034;SDS011;13809;48.632;11.576;2022-12-18T13:06:25;20.67;;;14.63;;
26034;SDS011;13809;48.632;11.576;2022-12-18T13:11:38;17.77;;;13.03;;
26034;SDS011;13809;48.632;11.576;2022-12-18T13:17:22;15.57;;;12.57;;
26034;SDS011;13809;48.632;11.576;2022-12-18T13:22:33;17.40;;;12.83;;
26034;SDS011;13809;48.632;11.576;2022-12-18T13:39:15;16.27;;;12.70;;
26034;SDS011;13809;48.632;11.576;2022-12-18T13:44:36;16.47;;;12.80;;
26034;SDS011;13809;48.632;11.576;2022-12-18T13:49:43;17.73;;;13.70;;
26034;SDS011;13809;48.632;11.576;2022-12-18T13:54:49;16.37;;;12.40;;
26034;SDS011;13809;48.632;11.576;2022-12-18T13:59:55;19.13;;;13.97;;
26034;SDS011;13809;48.632;11.576;2022-12-18T14:04:59;18.43;;;13.87;;
26034;SDS011;13809;48.632;11.576;2022-12-18T14:10:11;17.90;;;13.23;;
26034;SDS011;13809;48.632;11.576;2022-12-18T14:15:39;21.93;;;15.33;;
26034;SDS011;13809;48.632;11.576;2022-12-18T14:20:47;18.07;;;13.10;;
26034;SDS011;13809;48.632;11.576;2022-12-18T14:25:55;18.90;;;13.70;;
26034;SDS011;13809;48.632;11.576;2022-12-18T14:31:15;18.67;;;13.27;;
26034;SDS011;13809;48.632;11.576;2022-12-18T14:36:21;17.17;;;13.17;;
26034;SDS011;13809;48.632;11.576;2022-12-18T14:41:28;15.77;;;12.30;;
26034;SDS011;13809;48.632;11.576;2022-12-18T14:46:32;18.07;;;13.07;;
26034;SDS011;13809;48.632;11.576;2022-12-18T14:51:38;17.20;;;12.80;;
26034;SDS011;13809;48.632;11.576;2022-12-18T14:56:44;15.50;;;11.13;;
26034;SDS011;13809;48.632;11.576;2022-12-18T15:01:53;16.50;;;12.77;;
26034;SDS011;13809;48.632;11.576;2022-12-18T15:07:03;19.20;;;13.07;;
26034;SDS011;13809;48.632;11.576;2022-12-18T15:12:22;15.90;;;13.20;;
26034;SDS011;13809;48.632;11.576;2022-12-18T15:17:31;18.27;;;12.30;;
26034;SDS011;13809;48.632;11.576;2022-12-18T15:22:35;16.60;;;12.23;;
26034;SDS011;13809;48.632;11.576;2022-12-18T15:27:45;16.30;;;12.07;;
26034;SDS011;13809;48.632;11.576;2022-12-18T15:32:50;17.63;;;12.43;;
26034;SDS011;13809;48.632;11.576;2022-12-18T15:37:54;16.83;;;12.17;;
26034;SDS011;13809;48.632;11.576;2022-12-18T15:42:58;18.23;;;13.10;;
26034;SDS011;13809;48.632;11.576;2022-12-18T15:48:20;16.20;;;12.13;;
26034;SDS011;13809;48.632;11.576;2022-12-18T15:53:24;19.47;;;13.07;;
26034;SDS011;13809;48.632;11.576;2022-12-18T15:58:31;17.43;;;12.30;;
26034;SDS011;13809;48.632;11.576;2022-12-18T16:03:35;15.67;;;11.67;;
26034;SDS011;13809;48.632;11.576;2022-12-18T16:08:39;17.50;;;12.03;;
26034;SDS011;13809;48.632;11.576;2022-12-18T16:13:43;19.10;;;13.60;;
26034;SDS011;13809;48.632;11.576;2022-12-18T16:18:47;25.43;;;16.97;;
26034;SDS011;13809;48.632;11.576;2022-12-18T16:23:50;25.63;;;17.30;;
26034;SDS011;13809;48.632;11.576;2022-12-18T16:28:55;23.47;;;16.00;;
26034;SDS011;13809;48.632;11.576;2022-12-18T16:34:14;15.97;;;12.20;;
26034;SDS011;13809;48.632;11.576;2022-12-18T16:39:23;18.43;;;12.80;;
26034;SDS011;13809;48.632;11.576;2022-12-18T16:44:28;19.63;;;14.40;;
26034;SDS011;13809;48.632;11.576;2022-12-18T16:49:31;19.17;;;13.10;;
26034;SDS011;13809;48.632;11.576;2022-12-18T16:54:34;20.73;;;14.10;;
26034;SDS011;13809;48.632;11.576;2022-12-18T16:59:39;18.67;;;14.37;;
26034;SDS011;13809;48.632;11.576;2022-12-18T17:04:42;24.03;;;18.40;;
26034;SDS011;13809;48.632;11.576;2022-12-18T17:09:46;18.43;;;13.97;;
26034;SDS011;13809;48.632;11.576;2022-12-18T17:14:52;17.60;;;13.43;;
26034;SDS011;13809;48.632;11.576;2022-12-18T17:19:55;20.57;;;14.73;;
26034;SDS011;13809;48.632;11.576;2022-12-18T17:24:58;17.87;;;13.40;;
26034;SDS011;13809;48.632;11.576;2022-12-18T17:30:02;21.33;;;13.53;;
26034;SDS011;13809;48.632;11.576;2022-12-18T17:35:07;20.57;;;13.87;;
26034;SDS011;13809;48.632;11.576;2022-12-18T17:40:10;21.50;;;14.70;;
26034;SDS011;13809;48.632;11.576;2022-12-18T17:45:15;17.93;;;14.37;;
26034;SDS011;13809;48.632;11.576;2022-12-18T17:50:18;18.50;;;13.60;;
26034;SDS011;13809;48.632;11.576;2022-12-18T17:55:21;15.13;;;12.37;;
26034;SDS011;13809;48.632;11.576;2022-12-18T18:00:26;16.60;;;11.73;;
26034;SDS011;13809;48.632;11.576;2022-12-18T18:05:29;17.30;;;12.83;;
26034;SDS011;13809;48.632;11.576;2022-12-18T18:10:34;20.07;;;14.87;;
26034;SDS011;13809;48.632;11.576;2022-12-18T18:15:39;19.90;;;15.83;;
26034;SDS011;13809;48.632;11.576;2022-12-18T18:20:43;17.23;;;13.23;;
26034;SDS011;13809;48.632;11.576;2022-12-18T18:25:46;17.53;;;13.27;;
26034;SDS011;13809;48.632;11.576;2022-12-18T18:30:51;18.13;;;13.07;;
26034;SDS011;13809;48.632;11.576;2022-12-18T18:35:54;18.93;;;14.03;;
26034;SDS011;13809;48.632;11.576;2022-12-18T18:40:58;18.80;;;13.40;;
26034;SDS011;13809;48.632;11.576;2022-12-18T18:46:03;18.73;;;12.73;;
26034;SDS011;13809;48.632;11.576;2022-12-18T18:51:08;15.83;;;11.77;;
26034;SDS011;13809;48.632;11.576;2022-12-18T18:56:22;15.43;;;11.87;;
26034;SDS011;13809;48.632;11.576;2022-12-18T19:01:49;16.37;;;12.03;;
26034;SDS011;13809;48.632;11.576;2022-12-18T19:06:53;18.47;;;12.90;;
26034;SDS011;13809;48.632;11.576;2022-12-18T19:11:57;18.80;;;13.47;;
26034;SDS011;13809;48.632;11.576;2022-12-18T19:17:19;18.63;;;14.00;;
26034;SDS011;13809;48.632;11.576;2022-12-18T19:22:30;19.43;;;13.77;;
26034;SDS011;13809;48.632;11.576;2022-12-18T19:27:33;18.33;;;13.83;;
26034;SDS011;13809;48.632;11.576;2022-12-18T19:32:41;18.30;;;13.87;;
26034;SDS011;13809;48.632;11.576;2022-12-18T19:37:44;18.60;;;13.67;;
26034;SDS011;13809;48.632;11.576;2022-12-18T19:42:48;22.57;;;15.57;;
26034;SDS011;13809;48.632;11.576;2022-12-18T19:47:52;17.10;;;12.93;;
26034;SDS011;13809;48.632;11.576;2022-12-18T19:53:04;30.97;;;19.10;;
26034;SDS011;13809;48.632;11.576;2022-12-18T19:58:09;24.60;;;17.10;;
26034;SDS011;13809;48.632;11.576;2022-12-18T20:03:14;19.70;;;14.50;;
26034;SDS011;13809;48.632;11.576;2022-12-18T20:08:30;18.77;;;13.43;;
26034;SDS011;13809;48.632;11.576;2022-12-18T20:13:36;17.60;;;13.33;;
26034;SDS011;13809;48.632;11.576;2022-12-18T20:18:41;23.67;;;17.13;;
26034;SDS011;13809;48.632;11.576;2022-12-18T20:23:45;18.40;;;14.30;;
26034;SDS011;13809;48.632;11.576;2022-12-18T20:28:48;20.67;;;14.83;;
26034;SDS011;13809;48.632;11.576;2022-12-18T20:33:54;22.57;;;15.90;;
26034;SDS011;13809;48.632;11.576;2022-12-18T20:39:01;21.07;;;15.47;;
26034;SDS011;13809;48.632;11.576;2022-12-18T20:44:07;19.87;;;13.67;;
26034;SDS011;13809;48.632;11.576;2022-12-18T20:49:25;19.13;;;15.10;;
26034;SDS011;13809;48.632;11.576;2022-12-18T20:54:28;21.47;;;15.40;;
26034;SDS011;13809;48.632;11.576;2022-12-18T20:59:32;23.07;;;15.47;;
26034;SDS011;13809;48.632;11.576;2022-12-18T21:04:36;29.50;;;18.37;;
26034;SDS011;13809;48.632;11.576;2022-12-18T21:09:40;20.53;;;14.63;;
26034;SDS011;13809;48.632;11.576;2022-12-18T21:14:43;23.47;;;16.27;;
26034;SDS011;13809;48.632;11.576;2022-12-18T21:19:50;23.13;;;15.10;;
26034;SDS011;13809;48.632;11.576;2022-12-18T21:24:55;18.63;;;14.47;;
26034;SDS011;13809;48.632;11.576;2022-12-18T21:29:58;20.37;;;14.87;;
26034;SDS011;13809;48.632;11.576;2022-12-18T21:35:03;19.60;;;14.37;;
26034;SDS011;13809;48.632;11.576;2022-12-18T21:40:07;20.50;;;13.47;;
26034;SDS011;13809;48.632;11.576;2022-12-18T21:45:11;19.27;;;13.03;;
26034;SDS011;13809;48.632;11.576;2022-12-18T21:50:16;17.97;;;13.73;;
26034;SDS011;13809;48.632;11.576;2022-12-18T21:55:19;18.47;;;14.10;;
26034;SDS011;13809;48.632;11.576;2022-12-18T22:00:23;19.97;;;13.87;;
26034;SDS011;13809;48.632;11.576;2022-12-18T22:05:27;22.63;;;14.67;;
26034;SDS011;13809;48.632;11.576;2022-12-18T22:10:31;18.87;;;13.53;;
26034;SDS011;13809;48.632;11.576;2022-12-18T22:15:34;20.37;;;13.87;;
26034;SDS011;13809;48.632;11.576;2022-12-18T22:20:39;19.97;;;15.07;;
26034;SDS011;13809;48.632;11.576;2022-12-18T22:25:42;19.13;;;13.83;;
26034;SDS011;13809;48.632;11.576;2022-12-18T22:30:45;20.47;;;14.80;;
26034;SDS011;13809;48.632;11.576;2022-12-18T22:35:50;18.23;;;14.63;;
26034;SDS011;13809;48.632;11.576;2022-12-18T22:40:53;18.87;;;13.87;;
26034;SDS011;13809;48.632;11.576;2022-12-18T22:45:57;19.87;;;14.90;;
26034;SDS011;13809;48.632;11.576;2022-12-18T22:51:02;19.77;;;14.90;;
26034;SDS011;13809;48.632;11.576;2022-12-18T22:56:05;19.77;;;14.63;;
26034;SDS011;13809;48.632;11.576;2022-12-18T23:01:13;18.40;;;14.13;;
26034;SDS011;13809;48.632;11.576;2022-12-18T23:06:23;20.80;;;13.57;;
26034;SDS011;13809;48.632;11.576;2022-12-18T23:11:27;18.67;;;13.67;;
26034;SDS011;13809;48.632;11.576;2022-12-18T23:16:31;19.10;;;14.03;;
26034;SDS011;13809;48.632;11.576;2022-12-18T23:21:37;18.20;;;14.10;;
26034;SDS011;13809;48.632;11.576;2022-12-18T23:26:40;18.00;;;14.07;;
26034;SDS011;13809;48.632;11.576;2022-12-18T23:31:43;19.57;;;13.63;;
26034;SDS011;13809;48.632;11.576;2022-12-18T23:36:48;20.63;;;15.10;;
26034;SDS011;13809;48.632;11.576;2022-12-18T23:41:56;19.37;;;14.13;;
26034;SDS011;13809;48.632;11.576;2022-12-18T23:46:59;19.20;;;14.37;;
26034;SDS011;13809;48.632;11.576;2022-12-18T23:52:08;19.93;;;13.43;;
26034;SDS011;13809;48.632;11.576;2022-12-18T23:57:11;18.67;;;14.13;;
